Northpoint, Pennsylvania
Current Conditions -  °F | °C
As of 5:15 PM on Sunday 23 Nov 2014 (Local Time) from KIDI Reporting Station
Clear Clear  
Wind Chill: 57°   Ceiling: Unl
Heat Index: 57°   Visibility: 10mi
Dew Point: 32°   Wind: 10mph
Humidity: 38%   Direction: 140°SE
Pressure: 29.91"   Gusts: 17mph
Location:  40.91°N, 79.13°W
Report Text: KIDI 232215Z AUTO 14009G15KT 10SM CLR 14/00 A2991 RMK A01
Loading
Personal Weather Stations






























Interactive Weather Map New forecast layout! Learn more

10-Day Weather Forecast

Advertisements
Track Severe Weather on mobile